createdAt,value
2022-11-08T00:00:42.312Z,3.20
2022-11-08T00:03:10.815Z,3.00
2022-11-08T00:05:56.702Z,3.67
2022-11-08T00:08:42.436Z,3.60
2022-11-08T00:11:28.495Z,3.60
2022-11-08T00:13:58.272Z,4.00
2022-11-08T00:16:26.775Z,4.50
2022-11-08T00:18:55.216Z,4.40
2022-11-08T00:21:23.696Z,4.33
2022-11-08T00:23:52.243Z,4.73
2022-11-08T00:26:20.699Z,5.20
2022-11-08T00:28:49.090Z,5.50
2022-11-08T00:31:18.880Z,5.67
2022-11-08T00:33:47.441Z,5.40
2022-11-08T00:36:15.866Z,4.83
2022-11-08T00:38:44.648Z,5.03
2022-11-08T00:41:13.375Z,5.07
2022-11-08T00:43:42.068Z,4.13
2022-11-08T00:46:10.599Z,3.60
2022-11-08T00:48:40.382Z,3.80
2022-11-08T00:51:11.761Z,3.97
2022-11-08T00:53:40.540Z,3.67
2022-11-08T00:56:11.778Z,3.00
2022-11-08T00:58:41.528Z,3.30
2022-11-08T01:01:11.089Z,3.50
2022-11-08T01:03:41.150Z,3.70
2022-11-08T01:06:11.223Z,4.00
2022-11-08T01:08:41.225Z,4.40
2022-11-08T01:11:11.534Z,4.20
2022-11-08T01:13:40.242Z,4.10
2022-11-08T01:16:10.257Z,4.17
2022-11-08T01:18:40.149Z,3.77
2022-11-08T01:21:08.696Z,3.70
2022-11-08T01:23:37.288Z,3.80
2022-11-08T01:26:07.383Z,3.50
2022-11-08T01:28:36.626Z,3.37
2022-11-08T01:31:06.600Z,3.83
2022-11-08T01:33:35.213Z,3.60
2022-11-08T01:36:07.422Z,3.30
2022-11-08T01:38:35.894Z,2.97
2022-11-08T01:41:04.661Z,2.83
2022-11-08T01:43:43.931Z,3.10
2022-11-08T01:46:40.270Z,2.97
2022-11-08T01:49:37.106Z,3.10
2022-11-08T01:52:26.677Z,3.57
2022-11-08T01:55:00.421Z,4.30
2022-11-08T01:57:33.022Z,4.00
2022-11-08T02:00:05.479Z,4.00
2022-11-08T02:02:34.672Z,3.60
2022-11-08T02:05:04.592Z,3.33
2022-11-08T02:07:35.702Z,2.87
2022-11-08T02:10:04.406Z,20.63
2022-11-08T02:12:33.095Z,24.10
2022-11-08T02:15:01.681Z,16.13
2022-11-08T02:17:30.224Z,8.30
2022-11-08T02:19:58.755Z,5.00
2022-11-08T02:22:30.253Z,4.53
2022-11-08T02:25:00.356Z,4.33
2022-11-08T02:27:28.977Z,4.17
2022-11-08T02:29:57.953Z,3.77
2022-11-08T02:32:26.429Z,3.83
2022-11-08T02:34:57.335Z,4.47
2022-11-08T02:37:27.053Z,5.10
2022-11-08T02:39:55.490Z,5.70
2022-11-08T02:42:25.481Z,4.70
2022-11-08T02:44:53.923Z,4.90
2022-11-08T02:47:24.144Z,4.87
2022-11-08T02:49:52.580Z,6.77
2022-11-08T02:52:21.000Z,6.20
2022-11-08T02:54:49.421Z,5.60
2022-11-08T02:57:17.838Z,4.47
2022-11-08T02:59:49.251Z,4.17
2022-11-08T03:02:17.783Z,3.80
2022-11-08T03:04:46.311Z,3.90
2022-11-08T03:07:14.698Z,3.50
2022-11-08T03:09:43.085Z,3.03
2022-11-08T03:12:11.574Z,3.70
2022-11-08T03:14:40.049Z,4.20
2022-11-08T03:17:09.820Z,4.30
2022-11-08T03:19:38.275Z,3.80
2022-11-08T03:22:06.702Z,3.10
2022-11-08T03:24:35.132Z,2.47
2022-11-08T03:27:03.514Z,2.60
2022-11-08T03:29:31.931Z,3.30
2022-11-08T03:32:00.406Z,2.87
2022-11-08T03:34:30.193Z,3.00
2022-11-08T03:36:58.646Z,2.90
2022-11-08T03:39:27.150Z,3.17
2022-11-08T03:41:55.578Z,2.70
2022-11-08T03:44:24.164Z,2.50
2022-11-08T03:46:52.641Z,2.40
2022-11-08T03:49:21.853Z,2.30
2022-11-08T03:51:51.677Z,2.30
2022-11-08T03:54:20.266Z,3.10
2022-11-08T03:56:48.679Z,3.47
2022-11-08T03:59:17.168Z,2.87
2022-11-08T04:01:47.578Z,2.40
2022-11-08T04:04:16.189Z,2.20
2022-11-08T04:06:44.587Z,4.60
2022-11-08T04:09:19.037Z,4.67
2022-11-08T04:12:07.478Z,5.70
2022-11-08T04:14:53.192Z,7.57
2022-11-08T04:17:42.373Z,6.17
2022-11-08T04:20:29.291Z,6.10
2022-11-08T04:22:58.458Z,5.50
2022-11-08T04:25:33.969Z,5.40
2022-11-08T04:28:03.589Z,5.13
2022-11-08T04:30:32.677Z,5.00
2022-11-08T04:33:01.498Z,5.83
2022-11-08T04:35:30.204Z,4.80
2022-11-08T04:38:00.102Z,3.37
2022-11-08T04:40:31.698Z,7.57
2022-11-08T04:43:00.096Z,18.30
2022-11-08T04:45:28.555Z,11.70
2022-11-08T04:47:56.999Z,6.50
2022-11-08T04:50:25.428Z,3.60
2022-11-08T04:52:54.518Z,3.00
2022-11-08T04:55:23.757Z,6.13
2022-11-08T04:57:53.607Z,4.00
2022-11-08T05:00:22.126Z,3.13
2022-11-08T05:02:50.667Z,2.77
2022-11-08T05:05:19.741Z,3.40
2022-11-08T05:07:48.208Z,3.50
2022-11-08T05:10:16.862Z,3.00
2022-11-08T05:12:45.414Z,7.20
2022-11-08T05:15:15.247Z,6.43
2022-11-08T05:17:44.023Z,3.57
2022-11-08T05:20:30.134Z,3.03
2022-11-08T05:23:19.790Z,2.60
2022-11-08T05:25:48.346Z,2.57
2022-11-08T05:28:17.268Z,2.40
2022-11-08T05:30:53.553Z,2.90
2022-11-08T05:33:21.965Z,2.80
2022-11-08T05:35:51.054Z,2.90
2022-11-08T05:38:19.849Z,2.80
2022-11-08T05:40:48.952Z,2.80
2022-11-08T05:43:17.626Z,2.83
2022-11-08T05:45:52.946Z,3.47
2022-11-08T05:48:21.412Z,4.57
2022-11-08T05:50:50.075Z,5.00
2022-11-08T05:53:18.796Z,4.30
2022-11-08T05:55:47.591Z,3.80
2022-11-08T05:58:16.048Z,4.03
2022-11-08T06:00:44.514Z,5.10
2022-11-08T06:03:14.620Z,5.17
2022-11-08T06:05:43.601Z,6.77
2022-11-08T06:08:12.124Z,12.13
2022-11-08T06:10:40.726Z,12.13
2022-11-08T06:13:09.248Z,9.20
2022-11-08T06:15:37.681Z,6.60
2022-11-08T06:18:07.874Z,5.20
2022-11-08T06:20:37.964Z,4.40
2022-11-08T06:23:06.405Z,5.00
2022-11-08T06:25:35.591Z,10.07
2022-11-08T06:28:04.553Z,8.60
2022-11-08T06:30:33.076Z,9.50
2022-11-08T06:33:01.519Z,10.27
2022-11-08T06:35:29.938Z,10.20
2022-11-08T06:38:02.010Z,10.73
2022-11-08T06:40:32.398Z,8.57
2022-11-08T06:43:01.212Z,7.10
2022-11-08T06:45:29.750Z,8.60
2022-11-08T06:47:58.598Z,10.67
2022-11-08T06:50:27.483Z,5.50
2022-11-08T06:53:01.562Z,4.67
2022-11-08T06:55:30.539Z,7.20
2022-11-08T06:57:59.118Z,8.60
2022-11-08T07:00:28.197Z,10.73
2022-11-08T07:02:57.398Z,10.60
2022-11-08T07:05:26.318Z,8.90
2022-11-08T07:07:55.312Z,7.93
2022-11-08T07:10:27.119Z,8.60
2022-11-08T07:13:00.345Z,9.20
2022-11-08T07:15:29.553Z,8.93
2022-11-08T07:18:01.567Z,7.03
2022-11-08T07:20:30.322Z,7.77
2022-11-08T07:22:59.316Z,6.63
2022-11-08T07:25:30.183Z,7.60
2022-11-08T07:27:58.977Z,7.50
2022-11-08T07:30:27.678Z,6.70
2022-11-08T07:32:56.791Z,6.67
2022-11-08T07:35:25.977Z,5.70
2022-11-08T07:37:54.792Z,5.73
2022-11-08T07:40:23.406Z,5.87
2022-11-08T07:45:41.900Z,6.57
2022-11-08T07:48:13.076Z,5.50
2022-11-08T07:50:42.888Z,6.40
2022-11-08T07:53:12.184Z,6.93
2022-11-08T07:55:41.423Z,7.20
2022-11-08T07:58:12.279Z,6.77
2022-11-08T08:00:42.628Z,8.03
2022-11-08T08:03:13.498Z,7.97
2022-11-08T08:05:43.737Z,9.13
2022-11-08T08:08:14.213Z,8.50
2022-11-08T08:10:43.004Z,7.40
2022-11-08T08:13:13.090Z,7.00
2022-11-08T08:15:41.629Z,11.00
2022-11-08T08:18:11.943Z,10.70
2022-11-08T08:20:40.507Z,10.50
2022-11-08T08:23:08.911Z,7.90
2022-11-08T08:25:37.342Z,9.20
2022-11-08T08:28:06.933Z,6.83
2022-11-08T08:30:36.846Z,4.93
2022-11-08T08:33:28.497Z,4.60
2022-11-08T08:35:56.387Z,5.17
2022-11-08T08:38:24.879Z,4.80
2022-11-08T08:40:53.332Z,4.33
2022-11-08T08:43:22.528Z,4.50
2022-11-08T08:45:52.424Z,5.00
2022-11-08T08:48:20.988Z,4.90
2022-11-08T08:50:49.425Z,4.50
2022-11-08T08:53:18.289Z,4.30
2022-11-08T08:55:48.023Z,5.90
2022-11-08T08:58:16.465Z,4.87
2022-11-08T09:03:35.263Z,5.50
2022-11-08T09:06:03.906Z,5.70
2022-11-08T09:08:32.669Z,4.53
2022-11-08T09:11:02.385Z,4.90
2022-11-08T09:13:31.903Z,4.10
2022-11-08T09:16:01.766Z,4.00
2022-11-08T09:18:30.372Z,4.50
2022-11-08T09:21:01.016Z,4.20
2022-11-08T09:23:29.465Z,3.00
2022-11-08T09:25:59.097Z,2.40
2022-11-08T09:28:31.220Z,2.50
2022-11-08T09:31:04.666Z,2.43
2022-11-08T09:33:33.073Z,2.63
2022-11-08T09:36:03.036Z,3.47
2022-11-08T09:38:31.693Z,3.60
2022-11-08T09:41:13.195Z,3.50
2022-11-08T09:43:54.361Z,2.80
2022-11-08T09:46:29.270Z,2.73
2022-11-08T09:49:00.182Z,2.80
2022-11-08T09:51:31.705Z,3.10
2022-11-08T09:54:01.209Z,2.70
2022-11-08T09:56:32.246Z,2.80
2022-11-08T09:59:03.806Z,2.70
2022-11-08T10:01:34.286Z,2.60
2022-11-08T10:04:07.031Z,2.80
2022-11-08T10:06:49.597Z,2.60
2022-11-08T10:09:29.142Z,2.30
2022-11-08T10:12:04.599Z,2.70
2022-11-08T10:14:54.338Z,2.60
2022-11-08T10:17:52.443Z,3.00
2022-11-08T10:20:32.681Z,2.83
2022-11-08T10:23:15.763Z,2.83
2022-11-08T10:25:46.070Z,3.40
2022-11-08T10:28:17.435Z,3.23
2022-11-08T10:30:48.705Z,2.93
2022-11-08T10:33:20.838Z,2.80
2022-11-08T10:35:59.053Z,3.10
2022-11-08T10:38:37.171Z,2.93
2022-11-08T10:41:12.186Z,2.77
2022-11-08T10:43:43.562Z,2.73
2022-11-08T10:46:22.384Z,2.63
2022-11-08T10:48:50.806Z,2.60
2022-11-08T10:51:19.258Z,2.60
2022-11-08T10:53:49.028Z,2.17
2022-11-08T10:56:17.466Z,2.40
2022-11-08T10:58:46.003Z,1.90
2022-11-08T11:01:17.755Z,2.10
2022-11-08T11:03:47.259Z,2.33
2022-11-08T11:06:24.620Z,2.10
2022-11-08T11:08:57.539Z,1.90
2022-11-08T11:11:28.554Z,2.10
2022-11-08T11:14:16.218Z,1.97
2022-11-08T11:16:57.316Z,2.30
2022-11-08T11:19:26.695Z,2.30
2022-11-08T11:21:58.016Z,2.10
2022-11-08T11:24:27.820Z,2.13
2022-11-08T11:27:04.908Z,2.20
2022-11-08T11:29:35.025Z,1.97
2022-11-08T11:32:25.006Z,2.10
2022-11-08T11:34:56.155Z,2.10
2022-11-08T11:37:32.346Z,2.40
2022-11-08T11:40:12.768Z,2.70
2022-11-08T11:42:47.380Z,2.53
2022-11-08T11:45:20.610Z,2.30
2022-11-08T11:47:53.276Z,2.30
2022-11-08T11:50:30.098Z,2.40
2022-11-08T11:52:59.973Z,2.40
2022-11-08T11:55:39.061Z,2.63
2022-11-08T11:58:19.156Z,2.93
2022-11-08T12:00:52.557Z,2.80
2022-11-08T12:03:39.361Z,2.70
2022-11-08T12:06:21.243Z,2.57
2022-11-08T12:09:00.076Z,2.70
2022-11-08T12:11:47.899Z,2.60
2022-11-08T12:14:29.466Z,2.70
2022-11-08T12:17:07.609Z,2.77
2022-11-08T12:19:42.396Z,2.83
2022-11-08T12:22:22.638Z,2.70
2022-11-08T12:24:57.495Z,2.67
2022-11-08T12:27:36.325Z,2.70
2022-11-08T12:30:10.418Z,3.00
2022-11-08T12:32:54.538Z,2.83
2022-11-08T12:35:30.159Z,3.00
2022-11-08T12:38:11.881Z,2.87
2022-11-08T12:40:47.186Z,2.50
2022-11-08T12:43:30.847Z,3.00
2022-11-08T12:46:07.561Z,2.60
2022-11-08T12:48:57.990Z,2.70
2022-11-08T12:51:32.887Z,2.73
2022-11-08T12:54:18.530Z,2.50
2022-11-08T12:56:48.583Z,3.10
2022-11-08T12:59:21.586Z,2.70
2022-11-08T13:01:50.791Z,2.60
2022-11-08T13:04:29.989Z,2.60
2022-11-08T13:07:02.277Z,3.07
2022-11-08T13:09:41.539Z,2.97
2022-11-08T13:12:20.962Z,3.00
2022-11-08T13:14:50.954Z,2.73
2022-11-08T13:17:23.038Z,2.30
2022-11-08T13:20:02.010Z,2.70
2022-11-08T13:23:02.725Z,2.70
2022-11-08T13:25:43.112Z,2.53
2022-11-08T13:28:37.114Z,2.50
2022-11-08T13:31:18.773Z,2.70
2022-11-08T13:33:58.619Z,2.50
2022-11-08T13:36:34.301Z,2.47
2022-11-08T13:39:36.394Z,3.00
2022-11-08T13:42:27.702Z,2.90
2022-11-08T13:45:01.965Z,2.60
2022-11-08T13:47:55.501Z,3.40
2022-11-08T13:50:54.183Z,2.67
2022-11-08T13:53:57.975Z,2.97
2022-11-08T13:56:48.933Z,3.67
2022-11-08T13:59:59.997Z,40.60
2022-11-08T14:02:35.314Z,3.23
2022-11-08T14:05:26.725Z,2.90
2022-11-08T14:08:21.562Z,2.80
2022-11-08T14:11:25.902Z,2.90
2022-11-08T14:14:20.777Z,2.60
2022-11-08T14:17:11.776Z,2.57
2022-11-08T14:19:41.594Z,3.23
2022-11-08T14:22:19.880Z,3.10
2022-11-08T14:24:48.906Z,3.47
2022-11-08T14:27:37.150Z,2.80
2022-11-08T14:30:06.923Z,3.30
2022-11-08T14:32:35.460Z,14.97
2022-11-08T14:35:15.254Z,9.60
2022-11-08T14:37:46.432Z,15.83
2022-11-08T14:40:19.631Z,11.77
2022-11-08T14:42:48.111Z,9.00
2022-11-08T14:45:25.448Z,8.90
2022-11-08T14:47:57.144Z,9.23
2022-11-08T14:50:31.505Z,9.77
2022-11-08T14:53:21.942Z,36.90
2022-11-08T14:55:58.674Z,24.63
2022-11-08T14:58:29.103Z,16.63
2022-11-08T15:00:58.172Z,10.83
2022-11-08T15:03:31.956Z,7.70
2022-11-08T15:06:02.483Z,4.60
2022-11-08T15:08:33.982Z,4.13
2022-11-08T15:11:05.097Z,4.13
2022-11-08T15:13:39.649Z,4.57
2022-11-08T15:16:09.027Z,4.50
2022-11-08T15:18:38.956Z,4.27
2022-11-08T15:21:09.304Z,4.70
2022-11-08T15:23:44.262Z,4.20
2022-11-08T15:26:21.249Z,3.70
2022-11-08T15:29:03.790Z,3.30
2022-11-08T15:31:33.951Z,4.67
2022-11-08T15:34:02.430Z,4.13
2022-11-08T15:36:34.665Z,3.63
2022-11-08T15:39:07.137Z,4.23
2022-11-08T15:41:40.963Z,4.17
2022-11-08T15:44:18.098Z,6.30
2022-11-08T15:46:46.677Z,5.67
2022-11-08T15:49:19.121Z,5.43
2022-11-08T15:51:50.870Z,4.73
2022-11-08T15:54:21.740Z,4.53
2022-11-08T15:56:51.635Z,4.40
2022-11-08T15:59:23.140Z,6.13
2022-11-08T16:01:55.266Z,15.77
2022-11-08T16:04:24.132Z,14.75
2022-11-08T16:06:52.716Z,14.20
2022-11-08T16:09:22.636Z,11.67
2022-11-08T16:11:54.002Z,8.30
2022-11-08T16:14:24.955Z,6.93
2022-11-08T16:16:53.545Z,10.30
2022-11-08T16:19:23.544Z,9.30
2022-11-08T16:21:52.498Z,10.87
2022-11-08T16:24:22.350Z,8.80
2022-11-08T16:26:55.643Z,8.43
2022-11-08T16:29:25.597Z,6.43
2022-11-08T16:31:54.293Z,5.63
2022-11-08T16:34:23.296Z,5.00
2022-11-08T16:36:52.004Z,7.50
2022-11-08T16:39:26.176Z,14.10
2022-11-08T16:41:54.825Z,20.53
2022-11-08T16:44:23.406Z,39.30
2022-11-08T16:46:55.070Z,25.07
2022-11-08T16:49:24.182Z,19.07
2022-11-08T16:51:52.646Z,15.67
2022-11-08T16:54:28.383Z,14.70
2022-11-08T16:57:20.572Z,10.63
2022-11-08T16:59:46.755Z,9.20
2022-11-08T17:02:22.588Z,8.50
2022-11-08T17:04:51.040Z,7.47
2022-11-08T17:07:22.542Z,7.07
2022-11-08T17:09:51.094Z,10.83
2022-11-08T17:12:21.203Z,11.63
2022-11-08T17:14:56.227Z,12.17
2022-11-08T17:17:24.691Z,15.23
2022-11-08T17:19:55.250Z,17.03
2022-11-08T17:22:23.708Z,16.93
2022-11-08T17:24:52.170Z,10.63
2022-11-08T17:27:22.170Z,8.57
2022-11-08T17:29:51.034Z,7.87
2022-11-08T17:32:19.759Z,9.90
2022-11-08T17:34:48.323Z,8.57
2022-11-08T17:37:20.156Z,8.87
2022-11-08T17:39:50.444Z,48.40
2022-11-08T17:42:20.985Z,54.20
2022-11-08T17:44:49.519Z,37.57
2022-11-08T17:47:18.400Z,23.47
2022-11-08T17:49:47.108Z,20.50
2022-11-08T17:52:16.137Z,18.00
2022-11-08T17:54:48.995Z,27.90
2022-11-08T17:57:24.915Z,56.23
2022-11-08T17:59:55.582Z,23.80
2022-11-08T18:02:25.150Z,28.77
2022-11-08T18:04:53.646Z,36.97
2022-11-08T18:07:25.659Z,21.90
2022-11-08T18:09:56.953Z,9.47
2022-11-08T18:12:26.922Z,8.13
2022-11-08T18:14:57.805Z,9.40
2022-11-08T18:17:27.038Z,11.97
2022-11-08T18:19:55.710Z,13.23
2022-11-08T18:22:25.381Z,14.73
2022-11-08T18:24:53.942Z,16.53
2022-11-08T18:27:22.409Z,11.63
2022-11-08T18:29:52.359Z,10.40
2022-11-08T18:32:20.902Z,10.37
2022-11-08T18:34:51.011Z,10.90
2022-11-08T18:37:19.650Z,10.40
2022-11-08T18:39:48.110Z,9.10
2022-11-08T18:42:16.754Z,8.57
2022-11-08T18:44:45.503Z,9.77
2022-11-08T18:47:15.355Z,16.43
2022-11-08T18:49:47.065Z,17.33
2022-11-08T18:52:15.985Z,15.93
2022-11-08T18:54:45.373Z,16.73
2022-11-08T18:57:13.861Z,19.87
2022-11-08T18:59:42.298Z,19.53
2022-11-08T19:02:12.641Z,18.40
2022-11-08T19:04:42.463Z,21.90
2022-11-08T19:07:11.433Z,32.17
2022-11-08T19:09:40.044Z,60.53
2022-11-08T19:12:08.833Z,31.77
2022-11-08T19:14:37.642Z,19.80
2022-11-08T19:17:06.214Z,9.80
2022-11-08T19:19:34.870Z,8.43
2022-11-08T19:22:04.883Z,8.10
2022-11-08T19:24:33.343Z,8.10
2022-11-08T19:27:01.717Z,9.83
2022-11-08T19:29:30.169Z,10.37
2022-11-08T19:31:58.810Z,12.10
2022-11-08T19:34:27.287Z,10.17
2022-11-08T19:36:56.400Z,12.83
2022-11-08T19:39:26.309Z,12.63
2022-11-08T19:41:54.969Z,39.40
2022-11-08T19:44:23.401Z,50.87
2022-11-08T19:47:10.475Z,66.20
2022-11-08T19:49:40.546Z,37.20
2022-11-08T19:52:11.907Z,33.70
2022-11-08T19:54:41.720Z,28.37
2022-11-08T19:57:10.392Z,17.33
2022-11-08T19:59:38.919Z,9.07
2022-11-08T20:02:07.549Z,7.70
2022-11-08T20:04:36.483Z,11.70
2022-11-08T20:07:05.026Z,11.50
2022-11-08T20:09:35.643Z,10.17
2022-11-08T20:12:05.772Z,11.80
2022-11-08T20:14:34.566Z,12.20
2022-11-08T20:17:03.011Z,11.77
2022-11-08T20:19:31.426Z,12.07
2022-11-08T20:22:00.093Z,11.13
2022-11-08T20:24:28.643Z,12.80
2022-11-08T20:26:57.131Z,13.77
2022-11-08T20:29:27.026Z,12.67
2022-11-08T20:31:56.605Z,10.10
2022-11-08T20:34:25.778Z,9.20
2022-11-08T20:36:54.371Z,9.30
2022-11-08T20:39:22.783Z,8.93
2022-11-08T20:41:51.242Z,8.60
2022-11-08T20:44:20.210Z,9.60
2022-11-08T20:46:50.024Z,9.20
2022-11-08T20:49:18.565Z,8.33
2022-11-08T20:51:48.100Z,7.03
2022-11-08T20:54:17.135Z,8.53
2022-11-08T20:56:45.550Z,12.50
2022-11-08T20:59:14.921Z,14.23
2022-11-08T21:01:43.422Z,15.93
2022-11-08T21:04:13.248Z,14.20
2022-11-08T21:06:41.813Z,11.97
2022-11-08T21:09:34.524Z,11.37
2022-11-08T21:11:59.878Z,12.10
2022-11-08T21:14:28.341Z,10.60
2022-11-08T21:19:48.304Z,8.57
2022-11-08T21:22:16.847Z,7.80
2022-11-08T21:24:46.582Z,6.80
2022-11-08T21:27:15.259Z,7.90
2022-11-08T21:29:43.678Z,6.67
2022-11-08T21:32:12.340Z,7.30
2022-11-08T21:34:45.488Z,7.70
2022-11-08T21:37:16.026Z,7.60
2022-11-08T21:39:44.554Z,8.33
2022-11-08T21:42:13.984Z,9.13
2022-11-08T21:44:42.691Z,8.27
2022-11-08T21:47:11.243Z,7.13
2022-11-08T21:49:39.716Z,7.03
2022-11-08T21:52:08.111Z,7.80
2022-11-08T21:54:37.916Z,7.40
2022-11-08T21:57:06.344Z,8.03
2022-11-08T21:59:34.774Z,10.77
2022-11-08T22:02:03.219Z,9.60
2022-11-08T22:04:31.728Z,9.13
2022-11-08T22:07:00.330Z,9.73
2022-11-08T22:09:28.709Z,9.00
2022-11-08T22:11:58.570Z,10.23
2022-11-08T22:14:27.074Z,8.80
2022-11-08T22:16:55.459Z,8.23
2022-11-08T22:19:23.884Z,7.37
2022-11-08T22:21:52.285Z,7.30
2022-11-08T22:24:21.193Z,6.70
2022-11-08T22:26:51.301Z,6.47
2022-11-08T22:29:21.214Z,6.80
2022-11-08T22:31:49.852Z,6.90
2022-11-08T22:34:18.283Z,6.40
2022-11-08T22:36:46.780Z,6.53
2022-11-08T22:39:17.069Z,6.30
2022-11-08T22:41:46.241Z,6.30
2022-11-08T22:44:15.300Z,5.90
2022-11-08T22:46:46.109Z,5.50
2022-11-08T22:49:15.252Z,5.70
2022-11-08T22:51:43.926Z,5.87
2022-11-08T22:54:12.707Z,5.43
2022-11-08T22:56:41.799Z,5.60
2022-11-08T22:59:10.538Z,5.33
2022-11-08T23:01:38.979Z,5.13
2022-11-08T23:04:11.371Z,5.23
2022-11-08T23:06:40.688Z,5.33
2022-11-08T23:09:09.614Z,5.70
2022-11-08T23:11:55.313Z,5.60
2022-11-08T23:14:41.433Z,5.90
2022-11-08T23:17:10.089Z,6.73
2022-11-08T23:19:57.168Z,6.37
2022-11-08T23:22:43.306Z,6.20
2022-11-08T23:25:11.925Z,6.10
2022-11-08T23:27:57.805Z,6.00
2022-11-08T23:30:43.501Z,6.33
2022-11-08T23:33:12.001Z,6.63
2022-11-08T23:36:01.887Z,7.33
2022-11-08T23:38:30.415Z,6.97
2022-11-08T23:41:22.985Z,6.53
2022-11-08T23:44:17.302Z,6.03
2022-11-08T23:46:45.712Z,5.93
2022-11-08T23:49:14.103Z,5.43
2022-11-08T23:51:43.929Z,6.30
2022-11-08T23:54:12.339Z,5.67
2022-11-08T23:56:40.849Z,5.93
2022-11-08T23:59:10.863Z,5.90
